Time;durP1;ratioP1;P1;durP2;ratioP2;P2;SDS_P1;SDS_P2;PMS_P1;PMS_P2;Temp;Humidity;BMP_temperature;BMP_pressure;BME280_temperature;BME280_humidity;BME280_pressure;Samples;Min_cycle;Max_cycle;Signal;HPM_P1;HPM_P2
2022/04/19 00:01:50;;;;;;;12.48;7.03;;;14.40;99.90;;;;;;5016129;28;20497;-72
2022/04/19 00:04:18;;;;;;;9.27;7.05;;;14.50;99.90;;;;;;5036261;28;20049;-72
2022/04/19 00:06:46;;;;;;;9.77;7.30;;;14.40;99.90;;;;;;5036377;28;20038;-74
2022/04/19 00:09:12;;;;;;;10.75;6.95;;;14.30;99.90;;;;;;5031235;28;20370;-73
2022/04/19 00:11:39;;;;;;;20.63;8.80;;;14.30;99.90;;;;;;5021538;28;20046;-72
2022/04/19 00:14:07;;;;;;;18.52;10.63;;;14.30;99.90;;;;;;5029761;28;20616;-72
2022/04/19 00:16:38;;;;;;;14.90;7.55;;;14.30;99.90;;;;;;5038385;28;20045;-72
2022/04/19 00:19:07;;;;;;;11.35;7.07;;;14.30;99.90;;;;;;5016086;28;20046;-72
2022/04/19 00:21:33;;;;;;;10.55;5.63;;;14.20;99.90;;;;;;5001737;28;21053;-72
2022/04/19 00:23:59;;;;;;;13.77;6.70;;;14.20;99.90;;;;;;5018982;28;20128;-72
2022/04/19 00:26:26;;;;;;;17.20;9.95;;;14.30;99.90;;;;;;5038450;28;20036;-72
2022/04/19 00:28:52;;;;;;;12.25;6.90;;;14.20;99.90;;;;;;5038327;28;20048;-71
2022/04/19 00:31:18;;;;;;;12.77;7.43;;;14.20;99.90;;;;;;5015212;28;20030;-73
2022/04/19 00:33:44;;;;;;;12.45;7.03;;;14.20;99.90;;;;;;4994219;28;20045;-73
2022/04/19 00:36:11;;;;;;;9.57;6.78;;;14.20;99.90;;;;;;5000337;28;20041;-72
2022/04/19 00:38:38;;;;;;;11.02;6.53;;;14.20;99.90;;;;;;5032044;28;20045;-72
2022/04/19 00:41:04;;;;;;;11.02;5.72;;;14.10;99.90;;;;;;5016166;28;20081;-72
2022/04/19 00:43:30;;;;;;;8.90;5.20;;;14.10;99.90;;;;;;5013456;28;20069;-73
2022/04/19 00:45:56;;;;;;;8.60;4.15;;;14.10;99.90;;;;;;4999642;28;20041;-72
2022/04/19 00:48:22;;;;;;;7.75;4.65;;;14.10;99.90;;;;;;5019773;28;21569;-72
2022/04/19 00:50:50;;;;;;;9.20;4.88;;;14.10;99.90;;;;;;4998494;28;20489;-72
2022/04/19 00:53:17;;;;;;;7.07;4.82;;;14.10;99.90;;;;;;5019372;28;20037;-72
2022/04/19 00:55:44;;;;;;;7.22;3.90;;;14.10;99.90;;;;;;5017036;28;20081;-71
2022/04/19 00:58:11;;;;;;;7.13;4.22;;;14.10;99.90;;;;;;5036172;28;20037;-72
2022/04/19 01:00:37;;;;;;;12.35;6.00;;;14.10;99.90;;;;;;5003169;28;20044;-72
2022/04/19 01:03:03;;;;;;;14.55;7.10;;;14.00;99.90;;;;;;5017082;28;20392;-72
2022/04/19 01:05:29;;;;;;;13.68;8.05;;;14.10;99.90;;;;;;5036891;28;20432;-72
2022/04/19 01:07:55;;;;;;;10.55;6.07;;;14.00;99.90;;;;;;5004400;28;20045;-71
2022/04/19 01:10:21;;;;;;;7.90;5.13;;;14.00;99.90;;;;;;5017324;28;20053;-72
2022/04/19 01:15:31;;;;;;;10.65;5.80;;;14.00;99.90;;;;;;5018924;28;20041;-72
2022/04/19 01:18:01;;;;;;;11.13;5.18;;;14.00;99.90;;;;;;5030467;28;20052;-73
2022/04/19 01:20:28;;;;;;;9.25;5.10;;;14.00;99.90;;;;;;5001137;28;20042;-71
2022/04/19 01:22:54;;;;;;;11.88;5.63;;;13.90;99.90;;;;;;5032629;28;20046;-71
2022/04/19 01:25:20;;;;;;;8.88;5.03;;;13.90;99.90;;;;;;5034995;28;20420;-71
2022/04/19 01:27:47;;;;;;;10.70;5.72;;;13.90;99.90;;;;;;5034484;28;20037;-72
2022/04/19 01:30:13;;;;;;;12.05;5.32;;;13.90;99.90;;;;;;5017238;28;20093;-73
2022/04/19 01:32:39;;;;;;;11.57;7.00;;;13.90;99.90;;;;;;5017385;28;20064;-71
2022/04/19 01:35:08;;;;;;;12.82;6.38;;;13.80;99.90;;;;;;5019205;28;20124;-71
2022/04/19 01:37:39;;;;;;;11.07;5.70;;;13.80;99.90;;;;;;4986527;28;20041;-72
2022/04/19 01:40:19;;;;;;;12.13;6.28;;;13.80;99.90;;;;;;5002809;28;20045;-71
2022/04/19 01:42:54;;;;;;;8.45;5.45;;;13.80;99.90;;;;;;5036042;28;20052;-72
2022/04/19 01:45:25;;;;;;;12.05;6.10;;;13.80;99.90;;;;;;5020730;28;20709;-71
2022/04/19 01:47:58;;;;;;;10.00;6.13;;;13.80;99.90;;;;;;5020224;28;20030;-71
2022/04/19 01:50:26;;;;;;;11.85;7.10;;;13.80;99.90;;;;;;5016543;28;20501;-72
2022/04/19 01:52:53;;;;;;;12.98;6.57;;;13.70;99.90;;;;;;5001752;28;20120;-71
2022/04/19 01:55:20;;;;;;;11.07;6.88;;;13.70;99.90;;;;;;5019047;28;20033;-71
2022/04/19 01:57:48;;;;;;;10.68;6.60;;;13.70;99.90;;;;;;5034454;28;20044;-72
2022/04/19 02:00:16;;;;;;;12.32;6.15;;;13.70;99.90;;;;;;5034347;28;20045;-71
2022/04/19 02:02:43;;;;;;;9.98;4.88;;;13.70;99.90;;;;;;5037254;28;20042;-71
2022/04/19 02:05:09;;;;;;;7.45;4.68;;;13.70;99.90;;;;;;5002895;28;20459;-72
2022/04/19 02:07:40;;;;;;;9.20;5.13;;;13.70;99.90;;;;;;5039615;28;20132;-72
2022/04/19 02:10:07;;;;;;;7.85;4.65;;;13.80;99.90;;;;;;5031278;28;20656;-71
2022/04/19 02:12:33;;;;;;;9.23;5.13;;;13.80;99.90;;;;;;5039219;28;20112;-72
2022/04/19 02:15:00;;;;;;;8.93;4.93;;;13.70;99.90;;;;;;5035312;28;20045;-72
2022/04/19 02:17:26;;;;;;;9.45;5.30;;;13.60;99.90;;;;;;5020605;28;20044;-71
2022/04/19 02:19:59;;;;;;;8.13;5.15;;;13.60;99.90;;;;;;5022371;28;20038;-72
2022/04/19 02:22:27;;;;;;;7.95;5.30;;;13.60;99.90;;;;;;5036196;28;20124;-72
2022/04/19 02:24:53;;;;;;;7.68;5.53;;;13.60;99.90;;;;;;5017619;28;20406;-71
2022/04/19 02:27:19;;;;;;;8.93;5.95;;;13.60;99.90;;;;;;5004722;28;20057;-73
2022/04/19 02:29:45;;;;;;;8.35;5.78;;;13.60;99.90;;;;;;5018172;28;20096;-71
2022/04/19 02:32:12;;;;;;;12.90;6.40;;;13.60;99.90;;;;;;5034070;28;20470;-72
2022/04/19 02:34:38;;;;;;;8.65;5.55;;;13.60;99.90;;;;;;5019564;28;20030;-73
2022/04/19 02:37:04;;;;;;;7.85;5.95;;;13.50;99.90;;;;;;5013642;28;20156;-71
2022/04/19 02:39:30;;;;;;;13.27;6.53;;;13.60;99.90;;;;;;5034019;28;20146;-72
2022/04/19 02:41:56;;;;;;;9.60;5.93;;;13.50;99.90;;;;;;5034419;28;20034;-73
2022/04/19 02:44:22;;;;;;;10.48;5.55;;;13.50;99.90;;;;;;5018876;28;20137;-72
2022/04/19 02:46:49;;;;;;;9.88;5.43;;;13.50;99.90;;;;;;5034337;28;20061;-71
2022/04/19 02:49:16;;;;;;;8.23;5.55;;;13.40;99.90;;;;;;5016744;28;20048;-72
2022/04/19 02:51:42;;;;;;;10.65;5.30;;;13.40;99.90;;;;;;4998025;28;20052;-72
2022/04/19 02:54:08;;;;;;;9.02;6.45;;;13.40;99.90;;;;;;5036604;28;20038;-71
2022/04/19 02:56:35;;;;;;;12.60;6.72;;;13.30;99.90;;;;;;5022021;28;20116;-72
2022/04/19 02:59:00;;;;;;;10.77;6.00;;;13.30;99.90;;;;;;4985926;28;20679;-70
2022/04/19 03:01:27;;;;;;;8.75;5.60;;;13.20;99.90;;;;;;5016456;28;20129;-71
2022/04/19 03:03:54;;;;;;;10.18;6.28;;;13.30;99.90;;;;;;5021463;28;20087;-71
2022/04/19 03:06:21;;;;;;;9.98;6.43;;;13.30;99.90;;;;;;5000517;28;20033;-71
2022/04/19 03:08:48;;;;;;;9.40;5.10;;;13.30;99.90;;;;;;5031293;28;20132;-70
2022/04/19 03:11:14;;;;;;;9.88;6.22;;;13.30;99.90;;;;;;5017574;28;20129;-71
2022/04/19 03:13:40;;;;;;;12.82;6.28;;;13.30;99.90;;;;;;5021788;28;20045;-71
2022/04/19 03:16:10;;;;;;;10.95;6.68;;;13.30;99.90;;;;;;5017790;28;20038;-71
2022/04/19 03:18:36;;;;;;;16.90;7.68;;;13.20;99.90;;;;;;5034590;28;20057;-71
2022/04/19 03:21:02;;;;;;;11.20;6.45;;;13.20;99.90;;;;;;5018381;28;20052;-71
2022/04/19 03:28:57;;;;;;;11.38;6.05;;;13.20;99.90;;;;;;5017869;28;20733;-71
2022/04/19 03:31:23;;;;;;;10.35;6.55;;;13.20;99.90;;;;;;5014327;28;20049;-71
2022/04/19 03:33:52;;;;;;;11.98;6.60;;;13.20;99.90;;;;;;5020337;28;20041;-71
2022/04/19 03:36:20;;;;;;;11.50;7.13;;;13.20;99.90;;;;;;5000529;28;20469;-71
2022/04/19 03:38:46;;;;;;;12.27;7.53;;;13.20;99.90;;;;;;5015636;28;20090;-70
2022/04/19 03:41:13;;;;;;;15.45;8.65;;;13.10;99.90;;;;;;5017488;28;20045;-71
2022/04/19 03:43:41;;;;;;;17.85;8.27;;;13.00;99.90;;;;;;5031332;28;20044;-71
2022/04/19 03:46:09;;;;;;;16.95;8.68;;;13.00;99.90;;;;;;5035076;28;20123;-71
2022/04/19 03:48:37;;;;;;;14.38;9.57;;;13.10;99.90;;;;;;5021063;28;20520;-72
2022/04/19 03:51:03;;;;;;;13.68;9.90;;;13.10;99.90;;;;;;5021949;28;20041;-71
2022/04/19 03:53:30;;;;;;;18.60;12.35;;;13.10;99.90;;;;;;5016975;28;20041;-71
2022/04/19 03:55:58;;;;;;;16.90;10.43;;;13.10;99.90;;;;;;5016996;28;20030;-71
2022/04/19 03:58:26;;;;;;;12.00;8.65;;;13.00;99.90;;;;;;5018724;28;20029;-71
2022/04/19 04:00:54;;;;;;;12.32;7.97;;;13.10;99.90;;;;;;5014598;28;20038;-71
2022/04/19 04:03:21;;;;;;;15.55;8.50;;;13.10;99.90;;;;;;5016037;28;20060;-71
2022/04/19 04:05:47;;;;;;;14.73;8.15;;;13.10;99.90;;;;;;5034747;28;20527;-71
2022/04/19 04:08:14;;;;;;;14.02;8.15;;;13.10;99.90;;;;;;5018965;28;20063;-71
2022/04/19 04:10:41;;;;;;;11.50;7.90;;;13.20;99.90;;;;;;5016617;28;20447;-71
2022/04/19 04:13:07;;;;;;;9.57;6.80;;;13.20;99.90;;;;;;4982313;28;20381;-70
2022/04/19 04:15:33;;;;;;;13.45;7.53;;;13.20;99.90;;;;;;5002533;28;20037;-71
2022/04/19 04:17:59;;;;;;;11.70;6.30;;;13.20;99.90;;;;;;5032582;28;20041;-71
2022/04/19 04:20:25;;;;;;;11.57;7.40;;;13.10;99.90;;;;;;5001142;28;20042;-70
2022/04/19 04:22:51;;;;;;;11.88;7.13;;;13.10;99.90;;;;;;5031204;28;20097;-71
2022/04/19 04:25:17;;;;;;;9.95;6.50;;;13.10;99.90;;;;;;5017338;28;20057;-71
2022/04/19 04:27:43;;;;;;;13.07;7.82;;;13.10;99.90;;;;;;5020439;28;20060;-70
2022/04/19 04:30:10;;;;;;;12.63;7.82;;;13.10;99.90;;;;;;5016817;28;20385;-72
2022/04/19 04:32:36;;;;;;;13.20;8.00;;;13.10;99.90;;;;;;5016808;28;20133;-70
2022/04/19 04:35:02;;;;;;;14.70;8.00;;;13.10;99.90;;;;;;5016368;28;20112;-70
2022/04/19 04:37:28;;;;;;;11.60;8.02;;;13.10;99.90;;;;;;5017535;28;20038;-71
2022/04/19 04:39:56;;;;;;;15.20;8.90;;;13.10;99.90;;;;;;5031670;28;20038;-70
2022/04/19 04:42:21;;;;;;;15.45;10.05;;;13.10;99.90;;;;;;5017217;28;20034;-71
2022/04/19 04:44:47;;;;;;;17.55;10.30;;;13.00;99.90;;;;;;5016210;28;20493;-71
2022/04/19 04:50:00;;;;;;;20.17;11.15;;;13.00;99.90;;;;;;5035201;28;20090;-71
2022/04/19 04:52:25;;;;;;;19.02;11.25;;;13.00;99.90;;;;;;5000239;28;20064;-71
2022/04/19 04:54:52;;;;;;;17.60;11.60;;;13.20;99.90;;;;;;5019625;28;20041;-71
2022/04/19 04:57:19;;;;;;;18.80;9.18;;;13.20;99.90;;;;;;5011502;28;20080;-70
2022/04/19 04:59:47;;;;;;;16.77;9.45;;;13.20;99.90;;;;;;5020715;28;20045;-70
2022/04/19 05:02:13;;;;;;;17.45;11.30;;;13.10;99.90;;;;;;5016118;28;20048;-72
2022/04/19 05:04:38;;;;;;;16.88;10.98;;;13.00;99.90;;;;;;5000908;28;20045;-71
2022/04/19 05:07:04;;;;;;;16.63;10.27;;;13.10;99.90;;;;;;5016392;28;20030;-71
2022/04/19 05:09:30;;;;;;;26.80;14.57;;;13.10;99.90;;;;;;5021803;28;20041;-71
2022/04/19 05:11:57;;;;;;;21.38;13.45;;;13.10;99.90;;;;;;5022803;28;20041;-70
2022/04/19 05:14:23;;;;;;;24.77;14.25;;;13.10;99.90;;;;;;5028076;28;20037;-71
2022/04/19 05:16:50;;;;;;;21.63;14.00;;;13.10;99.90;;;;;;5033981;28;20049;-71
2022/04/19 05:19:17;;;;;;;30.70;15.85;;;13.20;99.90;;;;;;5018561;28;20049;-71
2022/04/19 05:21:42;;;;;;;22.25;13.85;;;13.30;99.90;;;;;;5006233;28;20061;-71
2022/04/19 05:24:09;;;;;;;20.92;14.18;;;13.30;99.90;;;;;;5019163;28;20474;-71
2022/04/19 05:26:35;;;;;;;23.25;14.40;;;13.40;99.90;;;;;;5005851;28;20127;-71
2022/04/19 05:29:03;;;;;;;20.48;13.05;;;13.50;99.90;;;;;;5024440;28;20065;-72
2022/04/19 05:31:29;;;;;;;22.60;14.15;;;13.60;99.90;;;;;;5023163;28;20115;-71
2022/04/19 05:33:56;;;;;;;19.75;13.07;;;13.60;99.90;;;;;;5039612;28;20077;-73
2022/04/19 05:36:24;;;;;;;20.52;12.65;;;13.70;99.90;;;;;;5022490;28;20046;-71
2022/04/19 05:38:52;;;;;;;24.10;13.93;;;13.70;99.90;;;;;;5022694;28;20049;-72
2022/04/19 05:41:20;;;;;;;18.20;12.43;;;13.80;99.90;;;;;;5020597;28;20037;-72
2022/04/19 05:43:47;;;;;;;18.17;13.20;;;13.90;99.90;;;;;;5038885;28;20049;-70
2022/04/19 05:46:17;;;;;;;26.25;14.63;;;14.00;99.90;;;;;;5021963;28;20044;-71
2022/04/19 05:48:44;;;;;;;19.30;14.43;;;14.10;99.90;;;;;;5019023;28;20065;-71
2022/04/19 05:51:11;;;;;;;20.20;13.45;;;14.10;99.90;;;;;;5034447;28;20087;-71
2022/04/19 05:53:38;;;;;;;21.13;14.88;;;14.20;99.90;;;;;;5017618;28;20037;-72
2022/04/19 05:56:04;;;;;;;23.45;14.77;;;14.30;99.90;;;;;;5020127;28;20042;-73
2022/04/19 05:58:30;;;;;;;23.35;14.35;;;14.40;99.90;;;;;;5037700;28;20476;-71
2022/04/19 06:00:57;;;;;;;19.65;14.68;;;14.40;99.90;;;;;;4997386;28;20045;-71
2022/04/19 06:06:08;;;;;;;25.27;16.85;;;14.60;99.90;;;;;;4999597;28;20718;-70
2022/04/19 06:08:34;;;;;;;25.27;17.27;;;14.70;99.90;;;;;;5001271;28;20046;-71
2022/04/19 06:11:00;;;;;;;25.70;16.15;;;14.80;99.90;;;;;;4999701;28;20060;-71
2022/04/19 06:13:27;;;;;;;26.80;16.15;;;14.80;99.90;;;;;;4986930;28;20062;-71
2022/04/19 06:15:54;;;;;;;28.92;15.77;;;14.80;99.90;;;;;;5018098;28;20056;-70
2022/04/19 06:18:21;;;;;;;20.75;14.27;;;14.80;99.90;;;;;;5033260;28;20136;-72
2022/04/19 06:20:53;;;;;;;23.17;14.80;;;14.90;99.90;;;;;;5017316;28;20046;-71
2022/04/19 06:23:19;;;;;;;20.88;13.10;;;14.90;99.90;;;;;;5039559;28;20034;-70
2022/04/19 06:25:45;;;;;;;20.60;12.73;;;15.00;99.90;;;;;;5005273;28;20124;-72
2022/04/19 06:28:11;;;;;;;23.83;13.30;;;15.00;99.90;;;;;;5020281;28;20120;-71
2022/04/19 06:30:37;;;;;;;20.98;12.60;;;15.00;99.90;;;;;;5021394;28;20093;-73
2022/04/19 06:33:03;;;;;;;22.08;13.23;;;15.00;99.90;;;;;;5015785;28;20444;-71
2022/04/19 06:35:29;;;;;;;24.15;12.63;;;15.10;99.90;;;;;;5021736;28;20069;-71
2022/04/19 06:37:55;;;;;;;22.52;12.98;;;15.20;99.90;;;;;;5034269;28;20069;-72
2022/04/19 06:40:21;;;;;;;22.98;14.07;;;15.30;99.90;;;;;;5014445;28;20042;-72
2022/04/19 06:42:49;;;;;;;21.50;13.88;;;15.40;99.90;;;;;;5001675;28;20049;-72
2022/04/19 06:45:16;;;;;;;25.83;14.27;;;15.50;99.90;;;;;;5015307;28;20046;-71
2022/04/19 06:47:42;;;;;;;23.40;14.63;;;15.60;99.90;;;;;;5032481;28;20037;-71
2022/04/19 06:50:09;;;;;;;25.13;15.27;;;15.70;99.90;;;;;;5016586;28;20157;-72
2022/04/19 06:52:35;;;;;;;25.65;14.88;;;15.80;99.90;;;;;;5022526;28;20856;-72
2022/04/19 06:55:01;;;;;;;23.60;14.82;;;15.90;99.90;;;;;;5036002;28;20049;-72
2022/04/19 06:57:27;;;;;;;21.13;15.25;;;16.00;99.90;;;;;;5035115;28;20538;-70
2022/04/19 06:59:53;;;;;;;22.95;14.40;;;16.10;99.90;;;;;;5018227;28;20812;-70
2022/04/19 07:02:19;;;;;;;25.15;15.07;;;16.20;99.90;;;;;;5003353;28;20033;-71
2022/04/19 07:04:44;;;;;;;22.52;14.80;;;16.30;99.90;;;;;;5004667;28;20156;-72
2022/04/19 07:07:12;;;;;;;21.73;12.95;;;16.40;99.90;;;;;;5021270;28;20136;-71
2022/04/19 07:09:39;;;;;;;19.00;12.50;;;16.50;99.90;;;;;;5023853;28;20069;-71
2022/04/19 07:12:08;;;;;;;21.13;12.85;;;16.60;99.90;;;;;;5002371;28;20045;-72
2022/04/19 07:14:36;;;;;;;21.08;12.48;;;16.70;99.90;;;;;;5005982;28;20041;-70
2022/04/19 07:17:02;;;;;;;20.13;11.15;;;16.80;99.90;;;;;;5017340;28;20067;-71
2022/04/19 07:26:37;;;;;;;20.45;10.93;;;16.80;99.90;;;;;;4992590;28;20037;-70
2022/04/19 07:27:45;;;;;;;18.00;10.63;;;17.30;99.90;;;;;;5007219;28;20129;-71
2022/04/19 07:30:11;;;;;;;19.17;11.32;;;17.40;99.90;;;;;;5007056;28;20092;-70
2022/04/19 07:32:36;;;;;;;19.10;11.00;;;17.50;99.90;;;;;;5007721;28;20485;-71
2022/04/19 07:35:02;;;;;;;18.77;11.52;;;17.50;99.90;;;;;;5002112;28;20049;-71
2022/04/19 07:37:29;;;;;;;18.88;10.93;;;17.50;99.90;;;;;;5016888;28;20396;-72
2022/04/19 07:39:55;;;;;;;20.33;11.10;;;17.50;99.90;;;;;;5019385;28;20130;-71
2022/04/19 07:42:21;;;;;;;19.13;10.82;;;17.50;99.90;;;;;;5020754;28;20037;-70
2022/04/19 07:44:49;;;;;;;18.73;11.70;;;17.50;99.90;;;;;;5006243;28;20404;-70
2022/04/19 07:47:17;;;;;;;19.15;10.23;;;17.50;99.90;;;;;;5007334;28;20042;-71
2022/04/19 07:49:43;;;;;;;17.00;10.30;;;17.40;99.90;;;;;;5021327;28;20546;-71
2022/04/19 07:52:11;;;;;;;16.60;10.13;;;17.30;99.90;;;;;;5003101;28;20057;-71
2022/04/19 07:54:36;;;;;;;16.98;10.63;;;17.40;99.90;;;;;;5001365;28;20550;-71
2022/04/19 07:57:03;;;;;;;16.40;11.32;;;17.30;99.90;;;;;;5013021;28;20042;-71
2022/04/19 07:59:29;;;;;;;24.15;10.98;;;17.30;99.90;;;;;;5021760;28;20132;-70
2022/04/19 08:01:55;;;;;;;21.70;10.95;;;17.30;99.90;;;;;;5020932;28;20126;-71
2022/04/19 08:04:21;;;;;;;22.38;11.93;;;17.30;99.90;;;;;;5020025;28;20073;-70
2022/04/19 08:06:48;;;;;;;20.10;11.55;;;17.20;99.90;;;;;;5006196;28;20705;-71
2022/04/19 08:09:14;;;;;;;20.33;11.95;;;17.10;99.90;;;;;;5002467;28;20040;-71
2022/04/19 08:11:41;;;;;;;18.15;12.60;;;17.10;99.90;;;;;;5009562;28;20050;-70
2022/04/19 08:14:07;;;;;;;20.58;11.75;;;16.80;99.90;;;;;;5006306;28;20069;-70
2022/04/19 08:16:34;;;;;;;25.23;13.63;;;16.70;99.90;;;;;;5015314;28;20045;-71
2022/04/19 08:19:00;;;;;;;20.15;12.60;;;16.70;99.90;;;;;;5020610;28;20042;-70
2022/04/19 08:21:26;;;;;;;21.85;12.82;;;16.60;99.90;;;;;;5006863;28;20485;-70
2022/04/19 08:23:53;;;;;;;20.92;12.65;;;16.70;99.90;;;;;;5011790;28;20046;-72
2022/04/19 08:26:19;;;;;;;19.85;11.90;;;16.60;99.90;;;;;;5008163;28;20060;-71
2022/04/19 08:28:45;;;;;;;25.13;13.80;;;16.40;99.90;;;;;;5013113;28;20151;-72
2022/04/19 08:31:12;;;;;;;23.42;16.08;;;16.50;99.90;;;;;;5010340;28;20048;-70
2022/04/19 08:33:37;;;;;;;38.47;23.63;;;16.40;99.90;;;;;;5017462;28;20404;-71
2022/04/19 08:36:04;;;;;;;33.25;22.73;;;16.30;99.90;;;;;;5018011;28;20056;-72
2022/04/19 08:38:31;;;;;;;40.60;23.08;;;16.00;99.90;;;;;;5004887;28;28070;-72
2022/04/19 08:41:00;;;;;;;35.38;23.27;;;16.10;99.90;;;;;;5005731;28;20522;-73
2022/04/19 08:43:28;;;;;;;38.22;23.77;;;16.20;99.90;;;;;;5016765;28;20049;-71
2022/04/19 08:45:54;;;;;;;36.92;24.58;;;16.10;99.90;;;;;;5018251;28;20406;-73
2022/04/19 08:48:25;;;;;;;35.42;22.80;;;16.20;99.90;;;;;;4992116;28;20048;-73
2022/04/19 08:50:54;;;;;;;36.53;22.67;;;16.20;99.90;;;;;;5018245;28;20063;-72
2022/04/19 08:58:52;;;;;;;35.60;20.75;;;16.30;99.90;;;;;;5005963;28;20564;-72
2022/04/19 09:01:18;;;;;;;34.58;21.50;;;16.50;99.90;;;;;;5005415;28;20030;-73
2022/04/19 09:03:44;;;;;;;31.58;21.98;;;16.70;99.90;;;;;;5003773;28;20053;-72
2022/04/19 09:06:10;;;;;;;34.10;20.95;;;16.80;99.90;;;;;;5022819;28;20038;-73
2022/04/19 09:08:36;;;;;;;34.05;21.83;;;16.80;99.90;;;;;;5020978;28;20042;-72
2022/04/19 09:11:09;;;;;;;33.95;21.25;;;17.10;99.90;;;;;;5016299;28;20449;-73
2022/04/19 09:13:36;;;;;;;35.80;21.27;;;17.20;99.90;;;;;;5007742;28;20508;-73
2022/04/19 09:16:04;;;;;;;34.10;21.35;;;17.20;99.90;;;;;;4984310;28;20046;-72
2022/04/19 09:18:34;;;;;;;31.48;21.10;;;17.20;99.90;;;;;;4985606;28;20540;-73
2022/04/19 09:21:02;;;;;;;29.65;21.02;;;17.20;99.90;;;;;;4984549;28;20065;-73
2022/04/19 09:23:31;;;;;;;28.23;19.90;;;17.20;99.90;;;;;;4986142;28;20521;-73
2022/04/19 09:26:00;;;;;;;30.23;21.17;;;17.10;99.90;;;;;;5002201;28;20030;-72
2022/04/19 09:28:28;;;;;;;37.10;20.77;;;17.10;99.90;;;;;;4987004;28;20490;-73
2022/04/19 09:30:59;;;;;;;38.35;22.23;;;17.20;99.90;;;;;;5001769;28;20417;-74
2022/04/19 09:33:29;;;;;;;29.95;20.90;;;17.10;99.90;;;;;;4979406;28;20038;-72
2022/04/19 09:36:02;;;;;;;31.48;21.48;;;17.10;99.90;;;;;;4983220;28;20043;-74
2022/04/19 09:38:36;;;;;;;32.35;21.08;;;17.20;99.90;;;;;;4984126;28;20043;-73
2022/04/19 09:41:05;;;;;;;40.42;21.05;;;17.30;99.90;;;;;;5015904;28;20382;-73
2022/04/19 09:43:32;;;;;;;33.88;20.15;;;17.50;99.90;;;;;;5005195;28;20072;-72
2022/04/19 09:46:03;;;;;;;32.47;21.00;;;17.60;99.90;;;;;;5007641;28;20084;-72
2022/04/19 09:48:31;;;;;;;36.15;21.27;;;17.60;99.90;;;;;;5016288;28;20489;-73
2022/04/19 09:51:12;;;;;;;32.53;20.67;;;17.70;99.90;;;;;;5005260;28;20045;-73
2022/04/19 09:53:44;;;;;;;31.98;20.23;;;17.60;99.90;;;;;;4988457;28;20035;-73
2022/04/19 09:56:15;;;;;;;31.90;18.40;;;17.60;99.90;;;;;;5004865;28;20069;-73
2022/04/19 09:58:44;;;;;;;30.80;18.25;;;17.60;99.90;;;;;;4985801;28;20046;-74
2022/04/19 10:08:10;;;;;;;31.02;16.90;;;17.70;99.90;;;;;;4988567;28;20042;-73
2022/04/19 10:09:33;;;;;;;36.65;15.75;;;17.90;99.90;;;;;;5008173;28;20133;-74
2022/04/19 10:12:03;;;;;;;29.60;13.95;;;18.00;99.90;;;;;;5025143;28;20052;-74
2022/04/19 10:14:30;;;;;;;21.63;13.25;;;18.10;99.90;;;;;;5007958;28;20777;-75
2022/04/19 10:17:01;;;;;;;28.45;13.80;;;18.40;99.90;;;;;;5003261;28;20037;-74
2022/04/19 10:19:28;;;;;;;21.40;12.52;;;18.60;99.90;;;;;;5006629;28;21404;-75
2022/04/19 10:21:58;;;;;;;18.05;11.38;;;18.70;99.90;;;;;;5026292;28;20033;-73
2022/04/19 10:24:27;;;;;;;19.25;11.38;;;19.00;99.90;;;;;;5006572;28;20610;-75
2022/04/19 10:26:53;;;;;;;19.23;11.05;;;19.30;99.90;;;;;;5013047;28;20137;-76
2022/04/19 10:29:23;;;;;;;18.80;10.43;;;19.40;99.90;;;;;;5025964;28;20049;-75
2022/04/19 10:32:06;;;;;;;20.75;9.13;;;19.60;99.90;;;;;;5029096;28;21904;-73
2022/04/19 10:34:39;;;;;;;12.60;7.70;;;19.70;99.90;;;;;;4987356;28;20037;-75
2022/04/19 10:37:26;;;;;;;14.73;6.75;;;19.70;99.90;;;;;;5021552;28;20080;-74
2022/04/19 10:39:58;;;;;;;17.50;7.65;;;19.40;99.90;;;;;;4990644;28;20099;-74
2022/04/19 10:42:32;;;;;;;14.07;7.53;;;19.10;99.90;;;;;;5005966;28;20037;-73
2022/04/19 10:45:14;;;;;;;21.15;7.93;;;19.00;99.90;;;;;;5022039;28;20049;-74
2022/04/19 10:47:55;;;;;;;17.52;8.48;;;19.00;99.90;;;;;;5001155;28;20053;-73
2022/04/19 10:50:25;;;;;;;23.50;10.15;;;18.50;99.90;;;;;;5020264;28;20038;-74
2022/04/19 10:52:52;;;;;;;18.25;9.32;;;18.40;99.90;;;;;;5037557;28;20055;-74
2022/04/19 10:55:23;;;;;;;22.70;10.45;;;18.40;99.90;;;;;;5031937;28;20127;-74
2022/04/19 10:58:06;;;;;;;18.20;11.00;;;18.50;99.90;;;;;;5035001;28;20034;-75
2022/04/19 11:00:42;;;;;;;;;;;18.50;99.90;;;;;;5036507;28;20054;-74
2022/04/19 11:03:15;;;;;;;17.83;11.20;;;18.30;99.90;;;;;;5020311;28;19924;-74
2022/04/19 11:05:43;;;;;;;16.55;9.40;;;18.30;99.90;;;;;;5037530;28;20485;-75
2022/04/19 11:08:25;;;;;;;16.05;9.43;;;18.40;99.90;;;;;;5019505;28;20417;-72
2022/04/19 11:10:52;;;;;;;16.45;9.00;;;18.90;99.90;;;;;;5018790;28;20475;-73
2022/04/19 11:13:38;;;;;;;20.13;8.60;;;19.30;99.90;;;;;;5008576;28;20052;-72
2022/04/19 11:16:05;;;;;;;13.40;8.10;;;19.20;99.90;;;;;;4999344;28;20063;-73
2022/04/19 11:18:32;;;;;;;10.38;7.00;;;19.20;99.90;;;;;;5003819;28;20046;-74
2022/04/19 11:21:01;;;;;;;17.60;6.50;;;19.00;99.90;;;;;;5003241;28;20057;-73
2022/04/19 11:23:31;;;;;;;12.38;5.85;;;18.90;99.90;;;;;;5006931;28;20069;-73
2022/04/19 11:25:58;;;;;;;13.23;6.15;;;18.80;99.90;;;;;;4985769;28;20046;-73
2022/04/19 11:28:30;;;;;;;15.88;5.60;;;18.80;99.90;;;;;;4969264;28;20551;-73
2022/04/19 11:30:56;;;;;;;13.13;5.22;;;18.70;99.90;;;;;;5002928;28;20042;-74
2022/04/19 11:33:31;;;;;;;11.93;4.95;;;18.60;99.90;;;;;;4997017;28;20140;-74
2022/04/19 11:36:03;;;;;;;10.30;4.90;;;18.60;99.90;;;;;;4988498;28;20390;-73
2022/04/19 11:38:30;;;;;;;11.13;5.53;;;18.50;99.90;;;;;;4985250;28;20452;-72
2022/04/19 11:46:45;;;;;;;12.38;6.13;;;18.30;99.90;;;;;;4985912;28;20166;-73
2022/04/19 11:49:20;;;;;;;12.65;6.38;;;18.40;99.90;;;;;;4987596;28;20042;-75
2022/04/19 11:51:52;;;;;;;16.45;7.35;;;18.30;99.90;;;;;;4987657;28;20045;-73
2022/04/19 11:54:30;;;;;;;13.93;8.10;;;18.20;99.90;;;;;;4998596;28;20528;-74
2022/04/19 11:56:58;;;;;;;17.13;7.85;;;18.20;99.90;;;;;;5000382;28;20035;-74
2022/04/19 11:59:29;;;;;;;12.60;7.00;;;18.00;99.90;;;;;;4985370;28;20056;-74
2022/04/19 12:01:56;;;;;;;18.98;8.38;;;18.00;99.90;;;;;;5005173;28;20121;-73
2022/04/19 12:04:23;;;;;;;17.05;8.55;;;17.90;99.90;;;;;;4998485;28;20046;-74
2022/04/19 12:06:56;;;;;;;13.85;8.35;;;17.40;99.90;;;;;;5011170;28;20038;-73
2022/04/19 12:09:23;;;;;;;15.77;8.30;;;17.20;99.90;;;;;;4979591;28;20041;-73
2022/04/19 12:11:50;;;;;;;15.10;8.80;;;17.20;99.90;;;;;;4993382;28;20042;-72
2022/04/19 12:14:29;;;;;;;18.48;9.85;;;17.20;99.90;;;;;;4998157;28;20045;-73
2022/04/19 12:17:03;;;;;;;17.75;9.48;;;17.40;99.90;;;;;;5012316;28;20489;-72
2022/04/19 12:19:39;;;;;;;15.27;8.57;;;17.20;99.90;;;;;;4995354;28;20129;-74
2022/04/19 12:22:18;;;;;;;16.08;8.40;;;17.20;99.90;;;;;;5017098;28;20092;-74
2022/04/19 12:24:46;;;;;;;11.43;6.80;;;17.40;99.90;;;;;;5013338;28;20053;-72
2022/04/19 12:27:13;;;;;;;13.30;6.85;;;17.40;99.90;;;;;;4999338;28;20042;-73
2022/04/19 12:30:12;;;;;;;11.43;6.68;;;17.50;99.90;;;;;;4979757;28;20042;-73
2022/04/19 12:32:59;;;;;;;11.05;5.68;;;17.50;99.90;;;;;;4996994;28;20152;-72
2022/04/19 12:35:37;;;;;;;11.23;5.03;;;17.90;99.90;;;;;;5003592;28;20095;-73
2022/04/19 12:38:16;;;;;;;9.85;4.85;;;18.20;99.90;;;;;;5010262;28;20473;-73
2022/04/19 12:40:43;;;;;;;7.82;4.97;;;18.50;99.90;;;;;;5012076;28;20107;-73
2022/04/19 12:43:12;;;;;;;12.07;5.20;;;18.80;99.90;;;;;;5011680;28;20698;-73
2022/04/19 12:45:40;;;;;;;10.18;4.50;;;19.00;99.90;;;;;;5015873;28;20046;-73
2022/04/19 12:48:17;;;;;;;9.00;5.18;;;19.00;99.90;;;;;;5012996;28;20029;-73
2022/04/19 12:50:43;;;;;;;11.43;5.82;;;19.10;99.90;;;;;;5030062;28;20034;-74
2022/04/19 12:53:24;;;;;;;8.90;5.10;;;19.20;99.90;;;;;;5032423;28;20570;-73
2022/04/19 12:58:45;;;;;;;11.93;4.38;;;19.20;99.90;;;;;;5017242;28;20088;-73
2022/04/19 13:01:13;;;;;;;6.15;3.80;;;19.00;99.90;;;;;;5016334;28;20034;-74
2022/04/19 13:03:39;;;;;;;7.38;4.18;;;18.90;99.90;;;;;;4999855;28;20373;-73
2022/04/19 13:14:20;;;;;;;9.80;3.85;;;18.60;99.90;;;;;;5016635;28;20072;-74
2022/04/19 13:16:46;;;;;;;9.70;4.30;;;18.50;99.90;;;;;;5031416;28;20037;-75
2022/04/19 13:19:13;;;;;;;8.48;3.60;;;18.50;99.90;;;;;;4999506;28;20065;-73
2022/04/19 13:21:39;;;;;;;8.93;3.90;;;18.60;99.80;;;;;;5031949;28;20037;-73
2022/04/19 13:24:07;;;;;;;10.05;3.90;;;18.70;99.60;;;;;;5008875;28;20095;-74
2022/04/19 13:26:36;;;;;;;10.50;3.78;;;18.70;99.10;;;;;;5015016;28;20499;-73